sensor_id;sensor_type;location;lat;lon;timestamp;P1;durP1;ratioP1;P2;durP2;ratioP2
13733;SDS011;43298;52.560;13.508;2023-06-10T00:02:09;13.93;;;12.98;;
13733;SDS011;43298;52.560;13.508;2023-06-10T00:04:35;14.30;;;13.40;;
13733;SDS011;43298;52.560;13.508;2023-06-10T00:07:04;13.55;;;12.95;;
13733;SDS011;43298;52.560;13.508;2023-06-10T00:09:36;16.52;;;15.73;;
13733;SDS011;43298;52.560;13.508;2023-06-10T00:12:06;13.98;;;13.38;;
13733;SDS011;43298;52.560;13.508;2023-06-10T00:14:38;16.38;;;15.57;;
13733;SDS011;43298;52.560;13.508;2023-06-10T00:17:08;15.07;;;14.27;;
13733;SDS011;43298;52.560;13.508;2023-06-10T00:19:34;15.43;;;14.55;;
13733;SDS011;43298;52.560;13.508;2023-06-10T00:22:01;15.20;;;14.40;;
13733;SDS011;43298;52.560;13.508;2023-06-10T00:24:28;16.13;;;15.32;;
13733;SDS011;43298;52.560;13.508;2023-06-10T00:26:54;16.33;;;15.63;;
13733;SDS011;43298;52.560;13.508;2023-06-10T00:29:20;21.00;;;19.42;;
13733;SDS011;43298;52.560;13.508;2023-06-10T00:31:46;23.90;;;22.83;;
13733;SDS011;43298;52.560;13.508;2023-06-10T00:34:12;25.80;;;24.70;;
13733;SDS011;43298;52.560;13.508;2023-06-10T00:36:39;27.17;;;25.95;;
13733;SDS011;43298;52.560;13.508;2023-06-10T00:39:05;21.83;;;20.70;;
13733;SDS011;43298;52.560;13.508;2023-06-10T00:41:32;20.85;;;19.55;;
13733;SDS011;43298;52.560;13.508;2023-06-10T00:43:59;17.52;;;16.67;;
13733;SDS011;43298;52.560;13.508;2023-06-10T00:46:25;14.52;;;13.93;;
13733;SDS011;43298;52.560;13.508;2023-06-10T00:48:52;13.88;;;13.27;;
13733;SDS011;43298;52.560;13.508;2023-06-10T00:51:18;16.38;;;15.57;;
13733;SDS011;43298;52.560;13.508;2023-06-10T00:53:45;16.35;;;15.25;;
13733;SDS011;43298;52.560;13.508;2023-06-10T00:56:12;15.68;;;14.95;;
13733;SDS011;43298;52.560;13.508;2023-06-10T00:58:40;13.55;;;13.00;;
13733;SDS011;43298;52.560;13.508;2023-06-10T01:01:06;13.68;;;12.93;;
13733;SDS011;43298;52.560;13.508;2023-06-10T01:03:35;10.77;;;10.18;;
13733;SDS011;43298;52.560;13.508;2023-06-10T01:08:45;10.93;;;10.43;;
13733;SDS011;43298;52.560;13.508;2023-06-10T01:11:19;11.68;;;10.85;;
13733;SDS011;43298;52.560;13.508;2023-06-10T01:13:50;10.57;;;10.07;;
13733;SDS011;43298;52.560;13.508;2023-06-10T01:16:21;9.85;;;9.32;;
13733;SDS011;43298;52.560;13.508;2023-06-10T01:18:48;10.98;;;10.27;;
13733;SDS011;43298;52.560;13.508;2023-06-10T01:21:20;10.27;;;9.68;;
13733;SDS011;43298;52.560;13.508;2023-06-10T01:23:52;10.20;;;9.60;;
13733;SDS011;43298;52.560;13.508;2023-06-10T01:26:22;10.88;;;10.38;;
13733;SDS011;43298;52.560;13.508;2023-06-10T01:29:00;11.63;;;11.02;;
13733;SDS011;43298;52.560;13.508;2023-06-10T01:31:49;9.27;;;8.88;;
13733;SDS011;43298;52.560;13.508;2023-06-10T01:34:38;10.90;;;10.40;;
13733;SDS011;43298;52.560;13.508;2023-06-10T01:37:07;10.05;;;9.65;;
13733;SDS011;43298;52.560;13.508;2023-06-10T01:39:38;10.52;;;10.00;;
13733;SDS011;43298;52.560;13.508;2023-06-10T01:42:08;9.52;;;9.13;;
13733;SDS011;43298;52.560;13.508;2023-06-10T01:44:39;10.55;;;9.80;;
13733;SDS011;43298;52.560;13.508;2023-06-10T01:47:05;10.45;;;9.68;;
13733;SDS011;43298;52.560;13.508;2023-06-10T01:49:31;9.77;;;9.32;;
13733;SDS011;43298;52.560;13.508;2023-06-10T01:51:57;9.18;;;8.60;;
13733;SDS011;43298;52.560;13.508;2023-06-10T01:54:23;10.02;;;9.43;;
13733;SDS011;43298;52.560;13.508;2023-06-10T01:56:49;9.50;;;9.05;;
13733;SDS011;43298;52.560;13.508;2023-06-10T01:59:16;16.33;;;10.27;;
13733;SDS011;43298;52.560;13.508;2023-06-10T02:01:42;11.02;;;10.32;;
13733;SDS011;43298;52.560;13.508;2023-06-10T02:04:08;9.73;;;9.30;;
13733;SDS011;43298;52.560;13.508;2023-06-10T02:06:34;11.57;;;10.73;;
13733;SDS011;43298;52.560;13.508;2023-06-10T02:09:00;9.18;;;8.77;;
13733;SDS011;43298;52.560;13.508;2023-06-10T02:11:26;10.05;;;9.57;;
13733;SDS011;43298;52.560;13.508;2023-06-10T02:13:52;9.65;;;9.15;;
13733;SDS011;43298;52.560;13.508;2023-06-10T02:16:18;8.40;;;8.00;;
13733;SDS011;43298;52.560;13.508;2023-06-10T02:18:44;11.30;;;9.15;;
13733;SDS011;43298;52.560;13.508;2023-06-10T02:21:09;9.38;;;8.88;;
13733;SDS011;43298;52.560;13.508;2023-06-10T02:23:35;9.27;;;8.63;;
13733;SDS011;43298;52.560;13.508;2023-06-10T02:26:01;9.93;;;9.32;;
13733;SDS011;43298;52.560;13.508;2023-06-10T02:28:27;9.38;;;8.93;;
13733;SDS011;43298;52.560;13.508;2023-06-10T02:30:53;11.27;;;10.65;;
13733;SDS011;43298;52.560;13.508;2023-06-10T02:33:19;8.55;;;8.15;;
13733;SDS011;43298;52.560;13.508;2023-06-10T02:35:45;9.10;;;8.65;;
13733;SDS011;43298;52.560;13.508;2023-06-10T02:38:11;11.10;;;10.50;;
13733;SDS011;43298;52.560;13.508;2023-06-10T02:40:36;9.23;;;8.77;;
13733;SDS011;43298;52.560;13.508;2023-06-10T02:43:02;10.23;;;9.63;;
13733;SDS011;43298;52.560;13.508;2023-06-10T02:45:28;13.07;;;12.40;;
13733;SDS011;43298;52.560;13.508;2023-06-10T02:47:54;11.15;;;10.55;;
13733;SDS011;43298;52.560;13.508;2023-06-10T02:50:20;11.88;;;11.38;;
13733;SDS011;43298;52.560;13.508;2023-06-10T02:52:46;11.82;;;10.90;;
13733;SDS011;43298;52.560;13.508;2023-06-10T02:55:13;9.38;;;8.57;;
13733;SDS011;43298;52.560;13.508;2023-06-10T02:57:39;11.73;;;11.07;;
13733;SDS011;43298;52.560;13.508;2023-06-10T03:00:05;12.68;;;11.98;;
13733;SDS011;43298;52.560;13.508;2023-06-10T03:02:35;12.80;;;12.20;;
13733;SDS011;43298;52.560;13.508;2023-06-10T03:05:04;11.45;;;10.95;;
13733;SDS011;43298;52.560;13.508;2023-06-10T03:07:35;11.20;;;10.70;;
13733;SDS011;43298;52.560;13.508;2023-06-10T03:10:02;11.00;;;10.48;;
13733;SDS011;43298;52.560;13.508;2023-06-10T03:12:28;11.40;;;10.82;;
13733;SDS011;43298;52.560;13.508;2023-06-10T03:14:54;11.02;;;10.43;;
13733;SDS011;43298;52.560;13.508;2023-06-10T03:17:20;12.68;;;12.05;;
13733;SDS011;43298;52.560;13.508;2023-06-10T03:19:46;12.18;;;11.57;;
13733;SDS011;43298;52.560;13.508;2023-06-10T03:22:12;10.55;;;10.07;;
13733;SDS011;43298;52.560;13.508;2023-06-10T03:24:40;14.00;;;13.15;;
13733;SDS011;43298;52.560;13.508;2023-06-10T03:27:09;11.52;;;10.73;;
13733;SDS011;43298;52.560;13.508;2023-06-10T03:29:38;11.00;;;10.30;;
13733;SDS011;43298;52.560;13.508;2023-06-10T03:32:04;10.75;;;10.07;;
13733;SDS011;43298;52.560;13.508;2023-06-10T03:34:31;10.02;;;9.52;;
13733;SDS011;43298;52.560;13.508;2023-06-10T03:36:57;9.40;;;9.00;;
13733;SDS011;43298;52.560;13.508;2023-06-10T03:39:23;10.13;;;9.63;;
13733;SDS011;43298;52.560;13.508;2023-06-10T03:41:49;10.38;;;9.88;;
13733;SDS011;43298;52.560;13.508;2023-06-10T03:44:16;10.73;;;10.23;;
13733;SDS011;43298;52.560;13.508;2023-06-10T03:46:42;12.95;;;12.20;;
13733;SDS011;43298;52.560;13.508;2023-06-10T03:49:08;9.80;;;9.38;;
13733;SDS011;43298;52.560;13.508;2023-06-10T03:51:34;10.40;;;10.00;;
13733;SDS011;43298;52.560;13.508;2023-06-10T03:54:01;12.43;;;11.45;;
13733;SDS011;43298;52.560;13.508;2023-06-10T03:56:27;11.07;;;10.27;;
13733;SDS011;43298;52.560;13.508;2023-06-10T03:58:54;12.10;;;11.52;;
13733;SDS011;43298;52.560;13.508;2023-06-10T04:01:20;10.68;;;10.18;;
13733;SDS011;43298;52.560;13.508;2023-06-10T04:03:47;9.32;;;8.82;;
13733;SDS011;43298;52.560;13.508;2023-06-10T04:06:14;12.18;;;11.38;;
13733;SDS011;43298;52.560;13.508;2023-06-10T04:08:41;12.05;;;11.35;;
13733;SDS011;43298;52.560;13.508;2023-06-10T04:11:07;12.13;;;11.15;;
13733;SDS011;43298;52.560;13.508;2023-06-10T04:13:34;11.32;;;10.73;;
13733;SDS011;43298;52.560;13.508;2023-06-10T04:16:00;10.05;;;9.50;;
13733;SDS011;43298;52.560;13.508;2023-06-10T04:18:25;11.45;;;10.88;;
13733;SDS011;43298;52.560;13.508;2023-06-10T04:20:53;9.90;;;9.30;;
13733;SDS011;43298;52.560;13.508;2023-06-10T04:23:19;10.90;;;10.38;;
13733;SDS011;43298;52.560;13.508;2023-06-10T04:25:46;11.40;;;10.80;;
13733;SDS011;43298;52.560;13.508;2023-06-10T04:28:12;15.52;;;14.65;;
13733;SDS011;43298;52.560;13.508;2023-06-10T04:30:38;13.95;;;13.32;;
13733;SDS011;43298;52.560;13.508;2023-06-10T04:33:04;11.73;;;11.13;;
13733;SDS011;43298;52.560;13.508;2023-06-10T04:35:31;13.68;;;12.98;;
13733;SDS011;43298;52.560;13.508;2023-06-10T04:37:59;11.68;;;11.02;;
13733;SDS011;43298;52.560;13.508;2023-06-10T04:40:27;9.88;;;9.38;;
13733;SDS011;43298;52.560;13.508;2023-06-10T04:42:53;14.88;;;14.18;;
13733;SDS011;43298;52.560;13.508;2023-06-10T04:45:19;13.15;;;12.55;;
13733;SDS011;43298;52.560;13.508;2023-06-10T04:47:45;11.48;;;10.88;;
13733;SDS011;43298;52.560;13.508;2023-06-10T04:50:11;11.30;;;10.48;;
13733;SDS011;43298;52.560;13.508;2023-06-10T04:52:37;10.30;;;9.82;;
13733;SDS011;43298;52.560;13.508;2023-06-10T04:55:03;12.43;;;11.65;;
13733;SDS011;43298;52.560;13.508;2023-06-10T04:57:29;12.65;;;11.80;;
13733;SDS011;43298;52.560;13.508;2023-06-10T04:59:55;11.52;;;11.02;;
13733;SDS011;43298;52.560;13.508;2023-06-10T05:02:21;14.15;;;13.43;;
13733;SDS011;43298;52.560;13.508;2023-06-10T05:04:46;18.00;;;17.08;;
13733;SDS011;43298;52.560;13.508;2023-06-10T05:07:12;17.95;;;16.95;;
13733;SDS011;43298;52.560;13.508;2023-06-10T05:09:38;23.80;;;22.80;;
13733;SDS011;43298;52.560;13.508;2023-06-10T05:12:04;18.15;;;17.05;;
13733;SDS011;43298;52.560;13.508;2023-06-10T05:14:31;18.30;;;17.42;;
13733;SDS011;43298;52.560;13.508;2023-06-10T05:16:57;15.80;;;15.10;;
13733;SDS011;43298;52.560;13.508;2023-06-10T05:19:23;14.77;;;13.70;;
13733;SDS011;43298;52.560;13.508;2023-06-10T05:21:49;17.35;;;16.55;;
13733;SDS011;43298;52.560;13.508;2023-06-10T05:24:15;21.55;;;20.55;;
13733;SDS011;43298;52.560;13.508;2023-06-10T05:26:40;12.65;;;11.85;;
13733;SDS011;43298;52.560;13.508;2023-06-10T05:29:07;16.45;;;15.60;;
13733;SDS011;43298;52.560;13.508;2023-06-10T05:31:36;32.75;;;31.17;;
13733;SDS011;43298;52.560;13.508;2023-06-10T05:34:02;19.52;;;18.48;;
13733;SDS011;43298;52.560;13.508;2023-06-10T05:36:28;14.43;;;13.82;;
13733;SDS011;43298;52.560;13.508;2023-06-10T05:38:53;14.05;;;13.10;;
13733;SDS011;43298;52.560;13.508;2023-06-10T05:41:19;12.52;;;11.93;;
13733;SDS011;43298;52.560;13.508;2023-06-10T05:43:47;13.68;;;12.70;;
13733;SDS011;43298;52.560;13.508;2023-06-10T05:46:12;12.57;;;12.00;;
13733;SDS011;43298;52.560;13.508;2023-06-10T05:48:38;12.68;;;12.07;;
13733;SDS011;43298;52.560;13.508;2023-06-10T05:51:04;15.23;;;14.20;;
13733;SDS011;43298;52.560;13.508;2023-06-10T05:53:31;14.27;;;13.60;;
13733;SDS011;43298;52.560;13.508;2023-06-10T05:55:57;15.93;;;15.02;;
13733;SDS011;43298;52.560;13.508;2023-06-10T05:58:23;14.02;;;13.32;;
13733;SDS011;43298;52.560;13.508;2023-06-10T06:00:49;13.88;;;13.20;;
13733;SDS011;43298;52.560;13.508;2023-06-10T06:03:15;13.98;;;13.27;;
13733;SDS011;43298;52.560;13.508;2023-06-10T06:05:43;13.93;;;13.32;;
13733;SDS011;43298;52.560;13.508;2023-06-10T06:08:09;14.40;;;13.70;;
13733;SDS011;43298;52.560;13.508;2023-06-10T06:10:35;17.33;;;16.48;;
13733;SDS011;43298;52.560;13.508;2023-06-10T06:13:01;18.35;;;17.45;;
13733;SDS011;43298;52.560;13.508;2023-06-10T06:15:27;24.70;;;23.48;;
13733;SDS011;43298;52.560;13.508;2023-06-10T06:17:53;23.58;;;22.40;;
13733;SDS011;43298;52.560;13.508;2023-06-10T06:20:19;25.73;;;24.58;;
13733;SDS011;43298;52.560;13.508;2023-06-10T06:22:45;20.38;;;19.08;;
13733;SDS011;43298;52.560;13.508;2023-06-10T06:25:11;18.08;;;17.27;;
13733;SDS011;43298;52.560;13.508;2023-06-10T06:27:37;16.58;;;15.88;;
13733;SDS011;43298;52.560;13.508;2023-06-10T06:30:03;18.20;;;17.30;;
13733;SDS011;43298;52.560;13.508;2023-06-10T06:32:30;20.13;;;19.30;;
13733;SDS011;43298;52.560;13.508;2023-06-10T06:34:56;25.67;;;24.50;;
13733;SDS011;43298;52.560;13.508;2023-06-10T06:37:24;28.60;;;27.23;;
13733;SDS011;43298;52.560;13.508;2023-06-10T06:39:51;30.17;;;28.77;;
13733;SDS011;43298;52.560;13.508;2023-06-10T06:42:18;24.40;;;23.30;;
13733;SDS011;43298;52.560;13.508;2023-06-10T06:44:45;21.45;;;20.55;;
13733;SDS011;43298;52.560;13.508;2023-06-10T06:47:13;27.25;;;26.05;;
13733;SDS011;43298;52.560;13.508;2023-06-10T06:49:39;28.52;;;27.15;;
13733;SDS011;43298;52.560;13.508;2023-06-10T06:52:05;31.77;;;30.42;;
13733;SDS011;43298;52.560;13.508;2023-06-10T06:54:31;30.20;;;27.63;;
13733;SDS011;43298;52.560;13.508;2023-06-10T06:56:57;21.38;;;20.38;;
13733;SDS011;43298;52.560;13.508;2023-06-10T06:59:23;24.80;;;23.75;;
13733;SDS011;43298;52.560;13.508;2023-06-10T07:01:50;22.38;;;21.38;;
13733;SDS011;43298;52.560;13.508;2023-06-10T07:04:16;22.50;;;21.33;;
13733;SDS011;43298;52.560;13.508;2023-06-10T07:06:44;18.30;;;17.42;;
13733;SDS011;43298;52.560;13.508;2023-06-10T07:09:10;18.20;;;17.15;;
13733;SDS011;43298;52.560;13.508;2023-06-10T07:11:36;27.40;;;26.00;;
13733;SDS011;43298;52.560;13.508;2023-06-10T07:14:02;24.50;;;23.40;;
13733;SDS011;43298;52.560;13.508;2023-06-10T07:16:28;29.23;;;27.40;;
13733;SDS011;43298;52.560;13.508;2023-06-10T07:18:53;27.70;;;26.35;;
13733;SDS011;43298;52.560;13.508;2023-06-10T07:21:19;25.75;;;24.40;;
13733;SDS011;43298;52.560;13.508;2023-06-10T07:23:45;27.40;;;26.20;;
13733;SDS011;43298;52.560;13.508;2023-06-10T07:26:11;25.80;;;24.67;;
13733;SDS011;43298;52.560;13.508;2023-06-10T07:28:39;25.15;;;23.95;;
13733;SDS011;43298;52.560;13.508;2023-06-10T07:31:05;23.63;;;22.42;;
13733;SDS011;43298;52.560;13.508;2023-06-10T07:33:32;20.05;;;19.13;;
13733;SDS011;43298;52.560;13.508;2023-06-10T07:35:58;20.35;;;19.45;;
13733;SDS011;43298;52.560;13.508;2023-06-10T07:38:24;22.20;;;20.98;;
13733;SDS011;43298;52.560;13.508;2023-06-10T07:40:51;23.40;;;22.13;;
13733;SDS011;43298;52.560;13.508;2023-06-10T07:43:18;31.77;;;30.30;;
13733;SDS011;43298;52.560;13.508;2023-06-10T07:45:44;24.52;;;23.33;;
13733;SDS011;43298;52.560;13.508;2023-06-10T07:48:09;30.77;;;29.20;;
13733;SDS011;43298;52.560;13.508;2023-06-10T07:50:36;20.20;;;19.30;;
13733;SDS011;43298;52.560;13.508;2023-06-10T07:53:01;33.60;;;32.15;;
13733;SDS011;43298;52.560;13.508;2023-06-10T07:55:28;47.53;;;45.40;;
13733;SDS011;43298;52.560;13.508;2023-06-10T07:57:54;63.33;;;60.58;;
13733;SDS011;43298;52.560;13.508;2023-06-10T08:00:20;72.53;;;69.38;;
13733;SDS011;43298;52.560;13.508;2023-06-10T08:02:46;72.57;;;69.45;;
13733;SDS011;43298;52.560;13.508;2023-06-10T08:05:12;67.30;;;64.30;;
13733;SDS011;43298;52.560;13.508;2023-06-10T08:07:39;78.35;;;75.05;;
13733;SDS011;43298;52.560;13.508;2023-06-10T08:10:05;67.88;;;64.85;;
13733;SDS011;43298;52.560;13.508;2023-06-10T08:12:32;45.10;;;43.08;;
13733;SDS011;43298;52.560;13.508;2023-06-10T08:14:59;35.15;;;33.55;;
13733;SDS011;43298;52.560;13.508;2023-06-10T08:17:26;34.22;;;32.63;;
13733;SDS011;43298;52.560;13.508;2023-06-10T08:19:51;35.45;;;33.85;;
13733;SDS011;43298;52.560;13.508;2023-06-10T08:22:17;37.97;;;36.35;;
13733;SDS011;43298;52.560;13.508;2023-06-10T08:24:43;34.35;;;32.72;;
13733;SDS011;43298;52.560;13.508;2023-06-10T08:27:09;30.90;;;29.52;;
13733;SDS011;43298;52.560;13.508;2023-06-10T08:29:35;34.67;;;33.10;;
13733;SDS011;43298;52.560;13.508;2023-06-10T08:32:01;35.95;;;34.33;;
13733;SDS011;43298;52.560;13.508;2023-06-10T08:34:28;37.95;;;35.75;;
13733;SDS011;43298;52.560;13.508;2023-06-10T08:36:54;36.13;;;34.53;;
13733;SDS011;43298;52.560;13.508;2023-06-10T08:39:21;35.65;;;34.08;;
13733;SDS011;43298;52.560;13.508;2023-06-10T08:41:51;39.05;;;37.35;;
13733;SDS011;43298;52.560;13.508;2023-06-10T08:44:36;31.70;;;30.20;;
13733;SDS011;43298;52.560;13.508;2023-06-10T08:47:13;57.97;;;55.47;;
13733;SDS011;43298;52.560;13.508;2023-06-10T08:49:41;56.75;;;54.25;;
13733;SDS011;43298;52.560;13.508;2023-06-10T08:52:11;65.47;;;62.60;;
13733;SDS011;43298;52.560;13.508;2023-06-10T08:54:57;41.63;;;39.67;;
13733;SDS011;43298;52.560;13.508;2023-06-10T08:57:30;23.63;;;22.50;;
13733;SDS011;43298;52.560;13.508;2023-06-10T08:59:57;23.80;;;22.70;;
13733;SDS011;43298;52.560;13.508;2023-06-10T09:02:27;21.90;;;20.88;;
13733;SDS011;43298;52.560;13.508;2023-06-10T09:04:53;18.73;;;17.85;;
13733;SDS011;43298;52.560;13.508;2023-06-10T09:07:20;18.20;;;17.40;;
13733;SDS011;43298;52.560;13.508;2023-06-10T09:09:48;18.13;;;17.25;;
13733;SDS011;43298;52.560;13.508;2023-06-10T09:12:14;24.23;;;22.98;;
13733;SDS011;43298;52.560;13.508;2023-06-10T09:14:41;31.00;;;29.30;;
13733;SDS011;43298;52.560;13.508;2023-06-10T09:17:07;43.15;;;41.25;;
13733;SDS011;43298;52.560;13.508;2023-06-10T09:19:33;34.75;;;33.15;;
13733;SDS011;43298;52.560;13.508;2023-06-10T09:22:01;30.38;;;28.98;;
13733;SDS011;43298;52.560;13.508;2023-06-10T09:24:27;32.30;;;30.90;;
13733;SDS011;43298;52.560;13.508;2023-06-10T09:27:04;31.48;;;30.05;;
13733;SDS011;43298;52.560;13.508;2023-06-10T09:29:44;31.88;;;30.38;;
13733;SDS011;43298;52.560;13.508;2023-06-10T09:32:20;30.02;;;28.67;;
13733;SDS011;43298;52.560;13.508;2023-06-10T09:34:47;28.00;;;26.63;;
13733;SDS011;43298;52.560;13.508;2023-06-10T09:37:19;31.48;;;30.08;;
13733;SDS011;43298;52.560;13.508;2023-06-10T09:40:00;27.73;;;26.48;;
13733;SDS011;43298;52.560;13.508;2023-06-10T09:42:34;29.23;;;27.83;;
13733;SDS011;43298;52.560;13.508;2023-06-10T09:45:03;26.85;;;25.35;;
13733;SDS011;43298;52.560;13.508;2023-06-10T09:47:31;24.20;;;23.10;;
13733;SDS011;43298;52.560;13.508;2023-06-10T09:49:57;21.35;;;19.55;;
13733;SDS011;43298;52.560;13.508;2023-06-10T09:52:26;22.40;;;21.17;;
13733;SDS011;43298;52.560;13.508;2023-06-10T09:54:55;22.42;;;21.42;;
13733;SDS011;43298;52.560;13.508;2023-06-10T09:57:31;19.80;;;18.90;;
13733;SDS011;43298;52.560;13.508;2023-06-10T10:00:19;27.10;;;25.90;;
13733;SDS011;43298;52.560;13.508;2023-06-10T10:02:53;25.15;;;24.05;;
13733;SDS011;43298;52.560;13.508;2023-06-10T10:05:19;19.48;;;18.58;;
13733;SDS011;43298;52.560;13.508;2023-06-10T10:07:48;25.77;;;24.63;;
13733;SDS011;43298;52.560;13.508;2023-06-10T10:10:14;43.22;;;41.40;;
13733;SDS011;43298;52.560;13.508;2023-06-10T10:12:43;46.40;;;44.38;;
13733;SDS011;43298;52.560;13.508;2023-06-10T10:15:12;43.35;;;41.47;;
13733;SDS011;43298;52.560;13.508;2023-06-10T10:17:44;41.92;;;40.13;;
13733;SDS011;43298;52.560;13.508;2023-06-10T10:20:19;42.45;;;40.65;;
13733;SDS011;43298;52.560;13.508;2023-06-10T10:22:51;55.95;;;53.17;;
13733;SDS011;43298;52.560;13.508;2023-06-10T10:25:28;56.65;;;54.08;;
13733;SDS011;43298;52.560;13.508;2023-06-10T10:28:10;59.35;;;56.78;;
13733;SDS011;43298;52.560;13.508;2023-06-10T10:30:39;61.92;;;59.22;;
13733;SDS011;43298;52.560;13.508;2023-06-10T10:33:19;66.97;;;64.07;;
13733;SDS011;43298;52.560;13.508;2023-06-10T10:35:50;62.80;;;60.13;;
13733;SDS011;43298;52.560;13.508;2023-06-10T10:38:18;64.50;;;61.72;;
13733;SDS011;43298;52.560;13.508;2023-06-10T10:40:46;55.38;;;52.92;;
13733;SDS011;43298;52.560;13.508;2023-06-10T10:43:13;62.83;;;60.03;;
13733;SDS011;43298;52.560;13.508;2023-06-10T10:45:40;57.85;;;55.25;;
13733;SDS011;43298;52.560;13.508;2023-06-10T10:48:09;58.85;;;56.13;;
13733;SDS011;43298;52.560;13.508;2023-06-10T10:50:37;56.53;;;54.08;;
13733;SDS011;43298;52.560;13.508;2023-06-10T10:53:04;54.90;;;52.53;;
13733;SDS011;43298;52.560;13.508;2023-06-10T10:55:30;52.60;;;50.28;;
13733;SDS011;43298;52.560;13.508;2023-06-10T10:57:58;55.55;;;53.15;;
13733;SDS011;43298;52.560;13.508;2023-06-10T11:00:31;61.65;;;59.05;;
13733;SDS011;43298;52.560;13.508;2023-06-10T11:03:05;65.38;;;62.55;;
13733;SDS011;43298;52.560;13.508;2023-06-10T11:05:39;66.60;;;63.58;;
13733;SDS011;43298;52.560;13.508;2023-06-10T11:08:13;96.32;;;91.70;;
13733;SDS011;43298;52.560;13.508;2023-06-10T11:10:40;72.00;;;68.63;;
13733;SDS011;43298;52.560;13.508;2023-06-10T11:13:18;60.50;;;57.85;;
13733;SDS011;43298;52.560;13.508;2023-06-10T11:15:47;34.25;;;32.75;;
13733;SDS011;43298;52.560;13.508;2023-06-10T11:18:28;30.88;;;29.58;;
13733;SDS011;43298;52.560;13.508;2023-06-10T11:21:05;51.80;;;49.58;;
13733;SDS011;43298;52.560;13.508;2023-06-10T11:31:32;27.33;;;25.92;;
13733;SDS011;43298;52.560;13.508;2023-06-10T11:34:10;22.98;;;21.88;;
13733;SDS011;43298;52.560;13.508;2023-06-10T11:36:38;20.98;;;19.77;;
13733;SDS011;43298;52.560;13.508;2023-06-10T11:39:10;20.10;;;19.20;;
13733;SDS011;43298;52.560;13.508;2023-06-10T11:41:37;21.73;;;20.67;;
13733;SDS011;43298;52.560;13.508;2023-06-10T11:44:14;22.67;;;21.48;;
13733;SDS011;43298;52.560;13.508;2023-06-10T11:46:40;28.92;;;27.52;;
13733;SDS011;43298;52.560;13.508;2023-06-10T11:49:09;37.03;;;35.45;;
13733;SDS011;43298;52.560;13.508;2023-06-10T11:51:37;36.88;;;35.13;;
13733;SDS011;43298;52.560;13.508;2023-06-10T11:54:05;40.42;;;38.60;;
13733;SDS011;43298;52.560;13.508;2023-06-10T11:56:34;43.83;;;41.95;;
13733;SDS011;43298;52.560;13.508;2023-06-10T11:59:04;54.45;;;52.05;;
13733;SDS011;43298;52.560;13.508;2023-06-10T12:01:33;54.20;;;51.83;;
13733;SDS011;43298;52.560;13.508;2023-06-10T12:04:05;106.13;;;101.68;;
13733;SDS011;43298;52.560;13.508;2023-06-10T12:09:19;50.10;;;47.80;;
13733;SDS011;43298;52.560;13.508;2023-06-10T12:19:55;26.83;;;25.58;;
13733;SDS011;43298;52.560;13.508;2023-06-10T12:22:21;29.08;;;27.77;;
13733;SDS011;43298;52.560;13.508;2023-06-10T12:27:31;37.00;;;35.30;;
13733;SDS011;43298;52.560;13.508;2023-06-10T12:30:00;49.80;;;47.60;;
13733;SDS011;43298;52.560;13.508;2023-06-10T12:32:45;57.00;;;54.28;;
13733;SDS011;43298;52.560;13.508;2023-06-10T12:35:12;73.35;;;70.22;;
13733;SDS011;43298;52.560;13.508;2023-06-10T12:37:42;92.78;;;88.75;;
13733;SDS011;43298;52.560;13.508;2023-06-10T12:40:25;94.90;;;90.88;;
13733;SDS011;43298;52.560;13.508;2023-06-10T12:42:57;93.80;;;89.20;;
13733;SDS011;43298;52.560;13.508;2023-06-10T12:45:31;101.05;;;96.78;;
13733;SDS011;43298;52.560;13.508;2023-06-10T12:48:09;101.45;;;97.20;;
13733;SDS011;43298;52.560;13.508;2023-06-10T12:50:43;95.05;;;91.03;;
13733;SDS011;43298;52.560;13.508;2023-06-10T12:53:10;93.78;;;89.75;;
13733;SDS011;43298;52.560;13.508;2023-06-10T12:55:36;87.60;;;83.88;;
13733;SDS011;43298;52.560;13.508;2023-06-10T12:58:03;67.05;;;63.58;;
13733;SDS011;43298;52.560;13.508;2023-06-10T13:00:29;72.55;;;69.43;;
13733;SDS011;43298;52.560;13.508;2023-06-10T13:03:05;58.45;;;55.85;;
13733;SDS011;43298;52.560;13.508;2023-06-10T13:05:31;51.10;;;48.90;;
13733;SDS011;43298;52.560;13.508;2023-06-10T13:07:58;60.40;;;57.60;;
13733;SDS011;43298;52.560;13.508;2023-06-10T13:10:24;61.25;;;58.60;;
13733;SDS011;43298;52.560;13.508;2023-06-10T13:12:50;92.57;;;88.63;;
13733;SDS011;43298;52.560;13.508;2023-06-10T13:15:19;108.15;;;103.28;;
13733;SDS011;43298;52.560;13.508;2023-06-10T13:17:45;86.75;;;83.05;;
13733;SDS011;43298;52.560;13.508;2023-06-10T13:20:14;116.63;;;111.63;;
13733;SDS011;43298;52.560;13.508;2023-06-10T13:22:41;105.57;;;101.15;;
13733;SDS011;43298;52.560;13.508;2023-06-10T13:25:08;110.25;;;105.57;;
13733;SDS011;43298;52.560;13.508;2023-06-10T13:27:34;110.60;;;106.03;;
13733;SDS011;43298;52.560;13.508;2023-06-10T13:30:04;103.82;;;99.30;;
13733;SDS011;43298;52.560;13.508;2023-06-10T13:32:34;104.72;;;100.35;;
13733;SDS011;43298;52.560;13.508;2023-06-10T13:35:01;84.10;;;80.47;;
13733;SDS011;43298;52.560;13.508;2023-06-10T13:37:28;69.35;;;66.18;;
13733;SDS011;43298;52.560;13.508;2023-06-10T13:39:54;49.53;;;47.33;;
13733;SDS011;43298;52.560;13.508;2023-06-10T13:42:20;48.90;;;46.80;;
13733;SDS011;43298;52.560;13.508;2023-06-10T13:44:46;50.20;;;47.97;;
13733;SDS011;43298;52.560;13.508;2023-06-10T13:47:14;55.42;;;52.90;;
13733;SDS011;43298;52.560;13.508;2023-06-10T13:49:40;58.70;;;56.10;;
13733;SDS011;43298;52.560;13.508;2023-06-10T13:52:06;53.58;;;50.30;;
13733;SDS011;43298;52.560;13.508;2023-06-10T13:54:33;51.58;;;48.78;;
13733;SDS011;43298;52.560;13.508;2023-06-10T13:57:01;47.75;;;45.65;;
13733;SDS011;43298;52.560;13.508;2023-06-10T13:59:27;35.38;;;33.78;;
13733;SDS011;43298;52.560;13.508;2023-06-10T14:01:53;32.35;;;30.95;;
13733;SDS011;43298;52.560;13.508;2023-06-10T14:04:19;33.53;;;31.92;;
13733;SDS011;43298;52.560;13.508;2023-06-10T14:06:45;31.33;;;29.83;;
13733;SDS011;43298;52.560;13.508;2023-06-10T14:09:12;31.58;;;29.38;;
13733;SDS011;43298;52.560;13.508;2023-06-10T14:11:39;31.77;;;30.38;;
13733;SDS011;43298;52.560;13.508;2023-06-10T14:14:05;40.95;;;38.08;;
13733;SDS011;43298;52.560;13.508;2023-06-10T14:16:31;32.75;;;31.35;;
13733;SDS011;43298;52.560;13.508;2023-06-10T14:18:57;34.88;;;33.33;;
13733;SDS011;43298;52.560;13.508;2023-06-10T14:21:22;34.22;;;32.53;;
13733;SDS011;43298;52.560;13.508;2023-06-10T14:23:48;32.88;;;31.30;;
13733;SDS011;43298;52.560;13.508;2023-06-10T14:26:16;29.45;;;28.05;;
13733;SDS011;43298;52.560;13.508;2023-06-10T14:28:42;33.60;;;32.03;;
13733;SDS011;43298;52.560;13.508;2023-06-10T14:31:08;31.52;;;30.05;;
13733;SDS011;43298;52.560;13.508;2023-06-10T14:33:34;28.27;;;27.00;;
13733;SDS011;43298;52.560;13.508;2023-06-10T14:35:59;27.35;;;26.17;;
13733;SDS011;43298;52.560;13.508;2023-06-10T14:38:25;26.67;;;25.42;;
13733;SDS011;43298;52.560;13.508;2023-06-10T14:40:51;23.73;;;22.60;;